Serenade Of The Seas — C6FV8 — position and weather

sailwx.info

Track history (hours):
 
Tides and Currents Weather Stations Pressure Air Temp Water Temp Dewpoint Dewpoint Depression Visibility Wind Speed Wind Dir Waves Ship Positions

Serenade Of The Seas

Operator: Royal Caribbean Cruises Ltd

Last reported at 2014-Nov-23 01:08 UTC. Time now 2014-Nov-26 06:31 UTC.
Position N 29°53' W 089°57'.

Length 294 m; draft 8.5 m.

Type: Ship. MMSI: 311492000.

Date/timePositionNaut miles runAvg speedWind from/ knotsBaromVisibWave heightAir tempDewpointWater temp
2014-Nov-23 01:08N 29°53' W 089°57'3 3.5
2014-Nov-23 00:25N 29°55' W 089°58'5 1.3
2014-Nov-22 20:26N 29°57' W 090°04'0 0.0
2014-Nov-22 19:07N 29°57' W 090°04'0 0.0
2014-Nov-22 18:31N 29°57' W 090°04'0 0.0
2014-Nov-22 17:24N 29°57' W 090°04'0 0.0
2014-Nov-22 16:31N 29°57' W 090°04'0 0.0
2014-Nov-22 15:30N 29°57' W 090°04'0 0.0
2014-Nov-22 14:33N 29°57' W 090°04'0 0.0
2014-Nov-22 13:31N 29°57' W 090°04'0 0.0
2014-Nov-22 12:33N 29°57' W 090°04'0 0.0
2014-Nov-22 11:32N 29°57' W 090°04'  
2014-Nov-17 23:15N 18°14' W 063°34'1416.7
2014-Nov-17 22:24N 18°03' W 063°25'1516.2
2014-Nov-17 21:27N 18°01' W 063°09'6 0.6
2014-Nov-17 11:26N 18°01' W 063°03'4 4.5
2014-Nov-17 10:31N 17°57' W 063°00'  
Track history (hours):
 
Tides and Currents Weather Stations Pressure Air Temp Water Temp Dewpoint Dewpoint Depression Visibility Wind Speed Wind Dir Waves Ship Positions

Serenade Of The Seas

Operator: Royal Caribbean Cruises Ltd

Last reported at 2014-Nov-23 01:08 UTC. Time now 2014-Nov-26 06:31 UTC.
Position N 29°53' W 089°57'.

Length 294 m; draft 8.5 m.

Type: Ship. MMSI: 311492000.

Date/timePositionNaut miles runAvg speedWind from/ knotsBaromVisibWave heightAir tempDewpointWater temp
2014-Nov-23 01:08N 29°53' W 089°57'3 3.5
2014-Nov-23 00:25N 29°55' W 089°58'5 1.3
2014-Nov-22 20:26N 29°57' W 090°04'0 0.0
2014-Nov-22 19:07N 29°57' W 090°04'0 0.0
2014-Nov-22 18:31N 29°57' W 090°04'0 0.0
2014-Nov-22 17:24N 29°57' W 090°04'0 0.0
2014-Nov-22 16:31N 29°57' W 090°04'0 0.0
2014-Nov-22 15:30N 29°57' W 090°04'0 0.0
2014-Nov-22 14:33N 29°57' W 090°04'0 0.0
2014-Nov-22 13:31N 29°57' W 090°04'0 0.0
2014-Nov-22 12:33N 29°57' W 090°04'0 0.0
2014-Nov-22 11:32N 29°57' W 090°04'  
2014-Nov-17 23:15N 18°14' W 063°34'1416.7
2014-Nov-17 22:24N 18°03' W 063°25'1516.2
2014-Nov-17 21:27N 18°01' W 063°09'6 0.6
2014-Nov-17 11:26N 18°01' W 063°03'4 4.5
2014-Nov-17 10:31N 17°57' W 063°00'  

Dump ship's entire track history